createdAt,value
2024-02-24T00:02:33.599Z,14.14
2024-02-24T00:06:35.120Z,14.06
2024-02-24T00:10:36.695Z,14.14
2024-02-24T00:14:38.248Z,13.62
2024-02-24T00:18:42.242Z,14.09
2024-02-24T00:22:44.223Z,14.01
2024-02-24T00:26:46.138Z,14.00
2024-02-24T00:30:47.930Z,14.08
2024-02-24T00:34:49.500Z,14.42
2024-02-24T00:38:51.209Z,14.28
2024-02-24T00:42:53.018Z,14.38
2024-02-24T00:46:54.467Z,14.49
2024-02-24T00:50:56.098Z,13.88
2024-02-24T00:54:57.653Z,14.29
2024-02-24T00:58:59.068Z,13.98
2024-02-24T01:03:01.880Z,14.09
2024-02-24T01:07:03.403Z,14.13
2024-02-24T01:11:06.684Z,14.29
2024-02-24T01:15:08.749Z,14.48
2024-02-24T01:19:10.482Z,14.29
2024-02-24T01:23:12.036Z,14.03
2024-02-24T01:27:13.825Z,13.78
2024-02-24T01:31:15.300Z,14.04
2024-02-24T01:35:20.518Z,14.05
2024-02-24T01:39:22.273Z,13.61
2024-02-24T01:43:28.269Z,13.83
2024-02-24T01:47:31.448Z,13.66
2024-02-24T01:51:33.356Z,13.99
2024-02-24T01:55:34.960Z,13.73
2024-02-24T01:59:37.091Z,13.80
2024-02-24T02:03:38.904Z,13.74
2024-02-24T02:07:40.480Z,13.54
2024-02-24T02:11:48.133Z,13.64
2024-02-24T02:15:58.439Z,14.03
2024-02-24T02:20:04.793Z,13.19
2024-02-24T02:24:06.839Z,13.78
2024-02-24T02:28:08.410Z,13.60
2024-02-24T02:32:10.022Z,13.20
2024-02-24T02:36:11.915Z,13.05
2024-02-24T02:40:13.470Z,13.45
2024-02-24T02:44:15.777Z,13.75
2024-02-24T02:48:17.489Z,13.70
2024-02-24T02:52:19.033Z,13.64
2024-02-24T02:56:22.219Z,14.01
2024-02-24T03:00:23.801Z,13.77
2024-02-24T03:04:25.242Z,13.55
2024-02-24T03:08:26.801Z,14.29
2024-02-24T03:12:28.621Z,13.79
2024-02-24T03:16:30.693Z,14.23
2024-02-24T03:20:32.200Z,13.85
2024-02-24T03:24:34.184Z,13.81
2024-02-24T03:28:35.626Z,13.73
2024-02-24T03:32:37.123Z,13.70
2024-02-24T03:36:39.492Z,13.69
2024-02-24T03:40:41.545Z,13.83
2024-02-24T03:44:43.043Z,14.03
2024-02-24T03:48:47.515Z,13.84
2024-02-24T03:52:49.566Z,13.66
2024-02-24T03:56:51.316Z,13.98
2024-02-24T04:00:53.138Z,13.82
2024-02-24T04:04:54.683Z,14.05
2024-02-24T04:08:56.252Z,13.77
2024-02-24T04:12:57.897Z,14.14
2024-02-24T04:16:59.344Z,14.03
2024-02-24T04:21:00.957Z,13.76
2024-02-24T04:25:02.450Z,14.07
2024-02-24T04:29:03.926Z,13.95
2024-02-24T04:33:08.627Z,14.05
2024-02-24T04:37:10.144Z,14.00
2024-02-24T04:41:11.586Z,14.15
2024-02-24T04:45:13.055Z,14.32
2024-02-24T04:49:14.783Z,13.48
2024-02-24T04:53:16.262Z,13.90
2024-02-24T04:57:17.678Z,13.92
2024-02-24T05:01:19.265Z,13.63
2024-02-24T05:05:21.204Z,13.77
2024-02-24T05:09:22.853Z,14.03
2024-02-24T05:13:24.629Z,14.08
2024-02-24T05:17:26.221Z,14.17
2024-02-24T05:21:27.731Z,13.54
2024-02-24T05:25:31.554Z,14.20
2024-02-24T05:29:33.781Z,14.20
2024-02-24T05:33:35.349Z,13.91
2024-02-24T05:37:37.189Z,14.05
2024-02-24T05:41:38.911Z,14.19
2024-02-24T05:45:41.965Z,14.11
2024-02-24T05:49:43.903Z,14.31
2024-02-24T05:53:45.384Z,14.45
2024-02-24T05:57:46.780Z,13.82
2024-02-24T06:01:48.452Z,14.41
2024-02-24T06:05:50.534Z,14.48
2024-02-24T06:09:52.080Z,14.40
2024-02-24T06:13:53.993Z,14.40
2024-02-24T06:17:55.601Z,14.58
2024-02-24T06:21:57.837Z,14.19
2024-02-24T06:25:59.469Z,14.07
2024-02-24T06:30:00.908Z,14.28
2024-02-24T06:34:08.686Z,14.48
2024-02-24T06:38:10.914Z,14.04
2024-02-24T06:42:12.431Z,14.73
2024-02-24T06:46:15.783Z,14.17
2024-02-24T06:50:17.306Z,14.40
2024-02-24T06:54:18.700Z,14.27
2024-02-24T06:58:20.299Z,14.34
2024-02-24T07:02:21.963Z,14.01
2024-02-24T07:06:23.711Z,14.26
2024-02-24T07:10:25.538Z,14.41
2024-02-24T07:14:26.889Z,14.43
2024-02-24T07:18:28.334Z,14.18
2024-02-24T07:22:30.165Z,14.10
2024-02-24T07:26:31.567Z,14.09
2024-02-24T07:30:33.024Z,14.47
2024-02-24T07:34:34.939Z,14.46
2024-02-24T07:38:40.272Z,14.20
2024-02-24T07:42:41.696Z,14.22
2024-02-24T07:46:43.115Z,13.88
2024-02-24T07:50:46.190Z,14.46
2024-02-24T07:54:47.615Z,14.63
2024-02-24T07:58:49.566Z,14.58
2024-02-24T08:02:51.036Z,14.21
2024-02-24T08:06:52.617Z,14.60
2024-02-24T08:10:54.104Z,14.53
2024-02-24T08:14:55.664Z,13.91
2024-02-24T08:18:57.421Z,13.90
2024-02-24T08:22:59.481Z,14.68
2024-02-24T08:27:01.551Z,14.31
2024-02-24T08:31:03.604Z,14.79
2024-02-24T08:35:05.823Z,14.87
2024-02-24T08:39:07.642Z,14.15
2024-02-24T08:43:09.269Z,13.88
2024-02-24T08:47:10.857Z,13.90
2024-02-24T08:51:12.701Z,14.72
2024-02-24T08:55:14.375Z,14.55
2024-02-24T08:59:15.953Z,14.87
2024-02-24T09:03:18.655Z,14.29
2024-02-24T09:07:21.559Z,14.29
2024-02-24T09:11:23.484Z,14.71
2024-02-24T09:15:24.954Z,16.45
2024-02-24T09:19:27.482Z,18.57
2024-02-24T09:23:29.195Z,19.72
2024-02-24T09:27:30.965Z,21.47
2024-02-24T09:31:32.455Z,19.82
2024-02-24T09:35:34.288Z,19.22
2024-02-24T09:39:35.762Z,20.86
2024-02-24T09:43:37.740Z,22.44
2024-02-24T09:47:40.776Z,23.24
2024-02-24T09:51:47.352Z,24.75
2024-02-24T09:55:50.335Z,21.88
2024-02-24T09:59:51.997Z,21.83
2024-02-24T10:03:55.493Z,22.83
2024-02-24T10:07:59.203Z,22.29
2024-02-24T10:12:02.527Z,20.93
2024-02-24T10:16:06.774Z,22.80
2024-02-24T10:20:09.861Z,22.08
2024-02-24T10:24:11.295Z,20.33
2024-02-24T10:28:12.679Z,19.91
2024-02-24T10:32:14.336Z,18.54
2024-02-24T10:36:16.274Z,18.22
2024-02-24T10:40:18.926Z,17.62
2024-02-24T10:44:23.499Z,17.63
2024-02-24T10:48:25.906Z,17.44
2024-02-24T10:52:27.625Z,18.08
2024-02-24T10:56:29.902Z,17.92
2024-02-24T11:00:33.293Z,17.03
2024-02-24T11:04:37.325Z,15.29
2024-02-24T11:08:46.033Z,15.12
2024-02-24T11:12:51.630Z,18.98
2024-02-24T11:16:53.313Z,21.84
2024-02-24T11:20:55.333Z,19.09
2024-02-24T11:25:05.147Z,17.90
2024-02-24T11:29:07.574Z,17.83
2024-02-24T11:33:25.387Z,18.21
2024-02-24T11:37:29.955Z,18.48
2024-02-24T11:41:32.758Z,20.27
2024-02-24T11:45:36.676Z,18.65
2024-02-24T11:49:49.334Z,17.57
2024-02-24T11:53:53.026Z,16.95
2024-02-24T11:57:54.961Z,17.21
2024-02-24T12:01:56.418Z,18.09
2024-02-24T12:06:02.972Z,18.91
2024-02-24T12:10:06.823Z,20.44
2024-02-24T12:14:11.701Z,17.84
2024-02-24T12:18:13.932Z,18.81
2024-02-24T12:22:15.607Z,18.49
2024-02-24T12:26:21.624Z,17.18
2024-02-24T12:30:23.834Z,17.61
2024-02-24T12:34:25.741Z,18.06
2024-02-24T12:38:28.736Z,17.93
2024-02-24T12:42:30.167Z,17.87
2024-02-24T12:46:32.379Z,17.21
2024-02-24T12:50:34.011Z,16.86
2024-02-24T12:54:35.509Z,17.39
2024-02-24T12:58:39.908Z,17.10
2024-02-24T13:02:42.124Z,16.76
2024-02-24T13:06:44.061Z,18.32
2024-02-24T13:10:46.984Z,17.87
2024-02-24T13:14:48.646Z,16.79
2024-02-24T13:18:50.074Z,16.96
2024-02-24T13:22:51.665Z,16.94
2024-02-24T13:26:53.184Z,17.58
2024-02-24T13:30:55.929Z,16.75
2024-02-24T13:34:57.387Z,17.68
2024-02-24T13:38:58.945Z,17.16
2024-02-24T13:43:01.451Z,17.56
2024-02-24T13:47:03.071Z,16.66
2024-02-24T13:51:05.884Z,16.48
2024-02-24T13:55:07.849Z,16.73
2024-02-24T13:59:09.443Z,16.69
2024-02-24T14:03:10.986Z,18.08
2024-02-24T14:07:14.965Z,17.61
2024-02-24T14:11:16.504Z,18.03
2024-02-24T14:15:20.567Z,17.29
2024-02-24T14:19:24.067Z,17.64
2024-02-24T14:23:25.676Z,18.18
2024-02-24T14:27:27.121Z,17.34
2024-02-24T14:31:28.728Z,17.97
2024-02-24T14:35:30.640Z,16.59
2024-02-24T14:39:32.159Z,17.35
2024-02-24T14:43:33.933Z,16.69
2024-02-24T14:47:35.642Z,17.07
2024-02-24T14:51:37.203Z,17.25
2024-02-24T14:55:38.739Z,17.53
2024-02-24T14:59:42.056Z,17.45
2024-02-24T15:03:45.395Z,17.78
2024-02-24T15:07:47.298Z,18.03
2024-02-24T15:11:48.808Z,18.05
2024-02-24T15:15:50.525Z,17.73
2024-02-24T15:19:52.882Z,17.21
2024-02-24T15:23:54.406Z,17.55
2024-02-24T15:27:55.923Z,17.57
2024-02-24T15:31:57.461Z,17.24
2024-02-24T15:36:01.071Z,17.32
2024-02-24T15:40:08.903Z,17.34
2024-02-24T15:44:16.387Z,17.24
2024-02-24T15:48:18.243Z,17.45
2024-02-24T15:52:19.747Z,17.75
2024-02-24T15:56:21.327Z,17.13
2024-02-24T16:00:23.282Z,17.26
2024-02-24T16:04:25.044Z,17.47
2024-02-24T16:08:28.277Z,17.37
2024-02-24T16:12:29.853Z,17.20
2024-02-24T16:16:31.458Z,17.03
2024-02-24T16:20:33.482Z,17.16
2024-02-24T16:24:34.970Z,16.67
2024-02-24T16:28:36.432Z,16.53
2024-02-24T16:32:38.274Z,16.00
2024-02-24T16:36:40.309Z,16.08
2024-02-24T16:40:42.257Z,16.01
2024-02-24T16:44:44.150Z,15.69
2024-02-24T16:48:45.782Z,15.93
2024-02-24T16:52:47.322Z,15.61
2024-02-24T16:56:48.783Z,15.58
2024-02-24T17:00:51.101Z,15.27
2024-02-24T17:04:55.835Z,15.29
2024-02-24T17:08:57.491Z,15.28
2024-02-24T17:13:03.680Z,14.94
2024-02-24T17:17:05.221Z,14.97
2024-02-24T17:21:06.650Z,15.23
2024-02-24T17:25:08.540Z,15.52
2024-02-24T17:29:09.955Z,15.04
2024-02-24T17:33:11.654Z,14.82
2024-02-24T17:37:13.233Z,15.56
2024-02-24T17:41:16.897Z,14.96
2024-02-24T17:45:19.094Z,15.57
2024-02-24T17:49:26.139Z,15.46
2024-02-24T17:53:27.769Z,14.70
2024-02-24T17:57:30.214Z,15.33
2024-02-24T18:01:31.615Z,14.88
2024-02-24T18:05:33.306Z,15.16
2024-02-24T18:09:36.695Z,14.49
2024-02-24T18:13:38.244Z,14.69
2024-02-24T18:17:39.950Z,14.10
2024-02-24T18:21:41.574Z,14.62
2024-02-24T18:25:43.101Z,14.17
2024-02-24T18:29:45.579Z,14.29
2024-02-24T18:33:47.268Z,14.30
2024-02-24T18:37:48.840Z,14.02
2024-02-24T18:41:50.462Z,14.17
2024-02-24T18:45:51.896Z,14.33
2024-02-24T18:49:54.388Z,13.83
2024-02-24T18:53:55.838Z,14.20
2024-02-24T18:57:57.455Z,14.20
2024-02-24T19:01:58.893Z,13.16
2024-02-24T19:06:00.706Z,14.03
2024-02-24T19:10:02.318Z,14.20
2024-02-24T19:14:03.785Z,13.72
2024-02-24T19:18:05.904Z,14.23
2024-02-24T19:22:07.510Z,14.05
2024-02-24T19:26:09.212Z,13.87
2024-02-24T19:30:11.407Z,14.19
2024-02-24T19:34:15.197Z,13.60
2024-02-24T19:38:16.855Z,13.88
2024-02-24T19:42:18.523Z,14.03
2024-02-24T19:46:20.031Z,13.89
2024-02-24T19:50:21.680Z,13.62
2024-02-24T19:54:25.223Z,13.93
2024-02-24T19:58:33.317Z,13.70
2024-02-24T20:02:38.617Z,13.99
2024-02-24T20:06:40.574Z,13.70
2024-02-24T20:10:42.574Z,13.25
2024-02-24T20:14:50.060Z,13.46
2024-02-24T20:18:52.526Z,13.62
2024-02-24T20:22:54.455Z,14.07
2024-02-24T20:26:56.074Z,14.09
2024-02-24T20:30:57.567Z,14.25
2024-02-24T20:34:59.109Z,14.15
2024-02-24T20:39:00.888Z,13.82
2024-02-24T20:43:02.415Z,13.82
2024-02-24T20:47:04.038Z,13.83
2024-02-24T20:51:06.880Z,13.99
2024-02-24T20:55:09.198Z,14.00
2024-02-24T20:59:11.025Z,13.59
2024-02-24T21:03:12.768Z,13.98
2024-02-24T21:07:14.366Z,13.62
2024-02-24T21:11:16.011Z,14.04
2024-02-24T21:15:17.470Z,14.20
2024-02-24T21:19:19.228Z,14.06
2024-02-24T21:23:20.717Z,14.10
2024-02-24T21:27:23.413Z,13.58
2024-02-24T21:31:24.902Z,13.54
2024-02-24T21:35:31.453Z,13.98
2024-02-24T21:39:33.081Z,13.60
2024-02-24T21:43:34.632Z,14.16
2024-02-24T21:47:36.141Z,13.68
2024-02-24T21:51:38.649Z,13.96
2024-02-24T21:55:40.378Z,13.20
2024-02-24T21:59:42.042Z,13.21
2024-02-24T22:03:43.599Z,13.65
2024-02-24T22:07:45.175Z,12.99
2024-02-24T22:11:46.906Z,13.54
2024-02-24T22:15:48.446Z,13.78
2024-02-24T22:19:49.908Z,13.47
2024-02-24T22:23:53.110Z,13.92
2024-02-24T22:27:54.698Z,14.00
2024-02-24T22:31:56.288Z,14.08
2024-02-24T22:35:57.952Z,13.84
2024-02-24T22:39:59.454Z,13.87
2024-02-24T22:44:00.978Z,13.92
2024-02-24T22:48:02.794Z,14.07
2024-02-24T22:52:05.460Z,13.27
2024-02-24T22:56:07.650Z,13.43
2024-02-24T23:00:14.497Z,13.97
2024-02-24T23:04:16.591Z,13.60
2024-02-24T23:08:17.981Z,13.71
2024-02-24T23:12:19.505Z,13.49
2024-02-24T23:16:21.181Z,13.52
2024-02-24T23:20:22.620Z,14.22
2024-02-24T23:24:24.040Z,14.33
2024-02-24T23:28:25.790Z,13.72
2024-02-24T23:32:27.356Z,14.13
2024-02-24T23:36:29.643Z,14.04
2024-02-24T23:40:31.150Z,14.21
2024-02-24T23:44:32.612Z,13.69
2024-02-24T23:48:44.762Z,13.98
2024-02-24T23:52:46.628Z,13.90
2024-02-24T23:56:48.203Z,13.84
